sensor_id;sensor_type;location;lat;lon;timestamp;temperature;humidity
68609;SHT31;55581;46.718;7.690;2023-04-03T00:01:11;6.78;92.42
68609;SHT31;55581;46.718;7.690;2023-04-03T00:03:37;6.75;91.46
68609;SHT31;55581;46.718;7.690;2023-04-03T00:06:04;6.66;91.56
68609;SHT31;55581;46.718;7.690;2023-04-03T00:08:35;6.47;91.73
68609;SHT31;55581;46.718;7.690;2023-04-03T00:11:01;6.47;91.74
68609;SHT31;55581;46.718;7.690;2023-04-03T00:13:27;6.49;92.10
68609;SHT31;55581;46.718;7.690;2023-04-03T00:15:53;6.57;91.46
68609;SHT31;55581;46.718;7.690;2023-04-03T00:18:18;6.51;91.29
68609;SHT31;55581;46.718;7.690;2023-04-03T00:20:44;6.50;91.24
68609;SHT31;55581;46.718;7.690;2023-04-03T00:23:09;6.50;91.47
68609;SHT31;55581;46.718;7.690;2023-04-03T00:25:36;6.51;91.31
68609;SHT31;55581;46.718;7.690;2023-04-03T00:28:02;6.56;91.26
68609;SHT31;55581;46.718;7.690;2023-04-03T00:30:27;6.63;91.96
68609;SHT31;55581;46.718;7.690;2023-04-03T00:32:53;6.63;91.79
68609;SHT31;55581;46.718;7.690;2023-04-03T00:35:20;6.64;92.89
68609;SHT31;55581;46.718;7.690;2023-04-03T00:37:46;6.61;91.61
68609;SHT31;55581;46.718;7.690;2023-04-03T00:40:13;6.54;91.41
68609;SHT31;55581;46.718;7.690;2023-04-03T00:42:42;6.56;91.53
68609;SHT31;55581;46.718;7.690;2023-04-03T00:47:43;6.50;92.70
68609;SHT31;55581;46.718;7.690;2023-04-03T00:50:08;6.51;91.21
68609;SHT31;55581;46.718;7.690;2023-04-03T00:52:35;6.49;92.39
68609;SHT31;55581;46.718;7.690;2023-04-03T00:55:05;6.49;91.63
68609;SHT31;55581;46.718;7.690;2023-04-03T00:57:31;6.50;91.65
68609;SHT31;55581;46.718;7.690;2023-04-03T01:00:11;6.50;91.04
68609;SHT31;55581;46.718;7.690;2023-04-03T01:02:37;6.49;90.97
68609;SHT31;55581;46.718;7.690;2023-04-03T01:05:03;6.46;91.47
68609;SHT31;55581;46.718;7.690;2023-04-03T01:07:30;6.49;91.89
68609;SHT31;55581;46.718;7.690;2023-04-03T01:09:58;6.49;91.75
68609;SHT31;55581;46.718;7.690;2023-04-03T01:12:31;6.46;92.07
68609;SHT31;55581;46.718;7.690;2023-04-03T01:15:08;6.43;92.21
68609;SHT31;55581;46.718;7.690;2023-04-03T01:17:42;6.41;91.70
68609;SHT31;55581;46.718;7.690;2023-04-03T01:28:05;6.44;92.24
68609;SHT31;55581;46.718;7.690;2023-04-03T01:30:34;6.36;91.94
68609;SHT31;55581;46.718;7.690;2023-04-03T01:33:01;6.39;91.88
68609;SHT31;55581;46.718;7.690;2023-04-03T01:35:27;6.39;92.08
68609;SHT31;55581;46.718;7.690;2023-04-03T01:37:52;6.46;92.62
68609;SHT31;55581;46.718;7.690;2023-04-03T01:40:21;6.43;91.66
68609;SHT31;55581;46.718;7.690;2023-04-03T01:42:46;6.41;92.07
68609;SHT31;55581;46.718;7.690;2023-04-03T01:45:12;6.46;92.61
68609;SHT31;55581;46.718;7.690;2023-04-03T01:47:37;6.44;91.52
68609;SHT31;55581;46.718;7.690;2023-04-03T01:50:03;6.46;91.45
68609;SHT31;55581;46.718;7.690;2023-04-03T01:52:28;6.49;91.92
68609;SHT31;55581;46.718;7.690;2023-04-03T01:54:54;6.43;90.50
68609;SHT31;55581;46.718;7.690;2023-04-03T01:57:19;6.46;91.16
68609;SHT31;55581;46.718;7.690;2023-04-03T01:59:44;6.47;91.28
68609;SHT31;55581;46.718;7.690;2023-04-03T02:02:10;6.47;91.36
68609;SHT31;55581;46.718;7.690;2023-04-03T02:04:37;6.50;90.50
68609;SHT31;55581;46.718;7.690;2023-04-03T02:07:03;6.44;90.85
68609;SHT31;55581;46.718;7.690;2023-04-03T02:09:31;6.47;91.48
68609;SHT31;55581;46.718;7.690;2023-04-03T02:11:56;6.49;92.09
68609;SHT31;55581;46.718;7.690;2023-04-03T02:14:21;6.44;91.40
68609;SHT31;55581;46.718;7.690;2023-04-03T02:16:49;6.43;91.21
68609;SHT31;55581;46.718;7.690;2023-04-03T02:19:14;6.51;92.00
68609;SHT31;55581;46.718;7.690;2023-04-03T02:21:39;6.49;91.36
68609;SHT31;55581;46.718;7.690;2023-04-03T02:24:05;6.49;92.03
68609;SHT31;55581;46.718;7.690;2023-04-03T02:26:31;6.50;92.56
68609;SHT31;55581;46.718;7.690;2023-04-03T02:28:59;6.51;90.27
68609;SHT31;55581;46.718;7.690;2023-04-03T02:31:24;6.54;90.61
68609;SHT31;55581;46.718;7.690;2023-04-03T02:33:50;6.41;90.03
68609;SHT31;55581;46.718;7.690;2023-04-03T02:36:15;6.37;89.79
68609;SHT31;55581;46.718;7.690;2023-04-03T02:38:41;6.41;90.14
68609;SHT31;55581;46.718;7.690;2023-04-03T02:41:09;6.47;90.73
68609;SHT31;55581;46.718;7.690;2023-04-03T02:43:34;6.46;90.56
68609;SHT31;55581;46.718;7.690;2023-04-03T02:46:05;6.40;90.43
68609;SHT31;55581;46.718;7.690;2023-04-03T02:48:31;6.40;89.57
68609;SHT31;55581;46.718;7.690;2023-04-03T02:50:56;6.29;89.56
68609;SHT31;55581;46.718;7.690;2023-04-03T02:53:22;6.36;89.43
68609;SHT31;55581;46.718;7.690;2023-04-03T02:55:51;6.36;89.58
68609;SHT31;55581;46.718;7.690;2023-04-03T02:58:16;6.37;90.01
68609;SHT31;55581;46.718;7.690;2023-04-03T03:00:41;6.36;89.86
68609;SHT31;55581;46.718;7.690;2023-04-03T03:03:07;6.36;90.82
68609;SHT31;55581;46.718;7.690;2023-04-03T03:05:33;6.39;90.82
68609;SHT31;55581;46.718;7.690;2023-04-03T03:08:01;6.39;90.15
68609;SHT31;55581;46.718;7.690;2023-04-03T03:10:26;6.32;89.91
68609;SHT31;55581;46.718;7.690;2023-04-03T03:12:52;6.33;89.88
68609;SHT31;55581;46.718;7.690;2023-04-03T03:15:17;6.33;89.63
68609;SHT31;55581;46.718;7.690;2023-04-03T03:17:44;6.36;89.67
68609;SHT31;55581;46.718;7.690;2023-04-03T03:20:11;6.30;90.04
68609;SHT31;55581;46.718;7.690;2023-04-03T03:22:36;6.26;90.01
68609;SHT31;55581;46.718;7.690;2023-04-03T03:25:02;6.11;90.73
68609;SHT31;55581;46.718;7.690;2023-04-03T03:27:28;6.16;92.26
68609;SHT31;55581;46.718;7.690;2023-04-03T03:29:53;6.19;92.54
68609;SHT31;55581;46.718;7.690;2023-04-03T03:32:19;6.20;91.84
68609;SHT31;55581;46.718;7.690;2023-04-03T03:34:44;6.22;91.27
68609;SHT31;55581;46.718;7.690;2023-04-03T03:37:10;6.22;90.81
68609;SHT31;55581;46.718;7.690;2023-04-03T03:39:35;6.18;90.78
68609;SHT31;55581;46.718;7.690;2023-04-03T03:42:01;6.18;90.81
68609;SHT31;55581;46.718;7.690;2023-04-03T03:44:26;6.22;90.79
68609;SHT31;55581;46.718;7.690;2023-04-03T03:46:54;6.26;91.16
68609;SHT31;55581;46.718;7.690;2023-04-03T03:49:22;6.32;91.93
68609;SHT31;55581;46.718;7.690;2023-04-03T03:51:49;6.34;91.83
68609;SHT31;55581;46.718;7.690;2023-04-03T03:54:17;6.22;90.16
68609;SHT31;55581;46.718;7.690;2023-04-03T03:56:43;6.23;90.93
68609;SHT31;55581;46.718;7.690;2023-04-03T03:59:10;6.22;91.97
68609;SHT31;55581;46.718;7.690;2023-04-03T04:01:36;6.30;91.61
68609;SHT31;55581;46.718;7.690;2023-04-03T04:04:01;6.29;90.76
68609;SHT31;55581;46.718;7.690;2023-04-03T04:06:26;6.28;90.28
68609;SHT31;55581;46.718;7.690;2023-04-03T04:08:52;6.30;91.64
68609;SHT31;55581;46.718;7.690;2023-04-03T04:11:17;6.29;91.71
68609;SHT31;55581;46.718;7.690;2023-04-03T04:13:43;6.28;91.25
68609;SHT31;55581;46.718;7.690;2023-04-03T04:16:09;6.29;91.71
68609;SHT31;55581;46.718;7.690;2023-04-03T04:18:35;6.33;91.45
68609;SHT31;55581;46.718;7.690;2023-04-03T04:21:00;6.36;91.47
68609;SHT31;55581;46.718;7.690;2023-04-03T04:23:26;6.33;92.21
68609;SHT31;55581;46.718;7.690;2023-04-03T04:25:51;6.28;90.79
68609;SHT31;55581;46.718;7.690;2023-04-03T04:28:17;6.25;90.29
68609;SHT31;55581;46.718;7.690;2023-04-03T04:30:43;6.25;90.78
68609;SHT31;55581;46.718;7.690;2023-04-03T04:33:08;6.23;90.75
68609;SHT31;55581;46.718;7.690;2023-04-03T04:35:35;6.13;91.20
68609;SHT31;55581;46.718;7.690;2023-04-03T04:38:00;6.22;90.96
68609;SHT31;55581;46.718;7.690;2023-04-03T04:40:26;6.25;91.62
68609;SHT31;55581;46.718;7.690;2023-04-03T04:42:51;6.23;92.00
68609;SHT31;55581;46.718;7.690;2023-04-03T04:45:17;6.12;91.25
68609;SHT31;55581;46.718;7.690;2023-04-03T04:47:42;6.15;92.32
68609;SHT31;55581;46.718;7.690;2023-04-03T04:50:08;6.19;92.56
68609;SHT31;55581;46.718;7.690;2023-04-03T04:52:34;6.18;91.94
68609;SHT31;55581;46.718;7.690;2023-04-03T04:54:59;6.29;92.37
68609;SHT31;55581;46.718;7.690;2023-04-03T04:57:27;6.30;92.88
68609;SHT31;55581;46.718;7.690;2023-04-03T04:59:52;6.33;92.96
68609;SHT31;55581;46.718;7.690;2023-04-03T05:02:18;6.37;91.49
68609;SHT31;55581;46.718;7.690;2023-04-03T05:04:43;6.43;92.32
68609;SHT31;55581;46.718;7.690;2023-04-03T05:07:09;6.39;91.06
68609;SHT31;55581;46.718;7.690;2023-04-03T05:09:35;6.37;90.95
68609;SHT31;55581;46.718;7.690;2023-04-03T05:12:00;6.30;91.38
68609;SHT31;55581;46.718;7.690;2023-04-03T05:14:26;6.36;92.31
68609;SHT31;55581;46.718;7.690;2023-04-03T05:16:51;6.30;92.35
68609;SHT31;55581;46.718;7.690;2023-04-03T05:19:19;6.32;91.83
68609;SHT31;55581;46.718;7.690;2023-04-03T05:21:45;6.30;91.02
68609;SHT31;55581;46.718;7.690;2023-04-03T05:24:10;6.37;91.34
68609;SHT31;55581;46.718;7.690;2023-04-03T05:26:36;6.36;90.42
68609;SHT31;55581;46.718;7.690;2023-04-03T05:29:02;6.26;90.39
68609;SHT31;55581;46.718;7.690;2023-04-03T05:31:27;6.25;91.62
68609;SHT31;55581;46.718;7.690;2023-04-03T05:33:54;6.23;91.56
68609;SHT31;55581;46.718;7.690;2023-04-03T05:36:22;6.28;91.52
68609;SHT31;55581;46.718;7.690;2023-04-03T05:38:48;6.30;90.99
68609;SHT31;55581;46.718;7.690;2023-04-03T05:41:14;6.39;91.33
68609;SHT31;55581;46.718;7.690;2023-04-03T05:43:40;6.46;90.65
68609;SHT31;55581;46.718;7.690;2023-04-03T05:46:11;6.37;91.14
68609;SHT31;55581;46.718;7.690;2023-04-03T05:48:36;6.40;90.90
68609;SHT31;55581;46.718;7.690;2023-04-03T05:51:03;6.44;91.65
68609;SHT31;55581;46.718;7.690;2023-04-03T05:53:29;6.43;89.03
68609;SHT31;55581;46.718;7.690;2023-04-03T05:55:56;6.51;89.52
68609;SHT31;55581;46.718;7.690;2023-04-03T05:58:21;6.63;88.20
68609;SHT31;55581;46.718;7.690;2023-04-03T06:00:47;6.66;87.72
68609;SHT31;55581;46.718;7.690;2023-04-03T06:03:12;6.71;87.62
68609;SHT31;55581;46.718;7.690;2023-04-03T06:05:38;6.64;87.65
68609;SHT31;55581;46.718;7.690;2023-04-03T06:08:03;6.67;88.53
68609;SHT31;55581;46.718;7.690;2023-04-03T06:10:29;6.71;87.44
68609;SHT31;55581;46.718;7.690;2023-04-03T06:12:54;6.77;86.63
68609;SHT31;55581;46.718;7.690;2023-04-03T06:15:20;6.84;87.30
68609;SHT31;55581;46.718;7.690;2023-04-03T06:17:46;6.80;86.67
68609;SHT31;55581;46.718;7.690;2023-04-03T06:20:12;6.88;84.46
68609;SHT31;55581;46.718;7.690;2023-04-03T06:22:37;6.84;85.14
68609;SHT31;55581;46.718;7.690;2023-04-03T06:25:03;6.71;87.04
68609;SHT31;55581;46.718;7.690;2023-04-03T06:27:30;6.83;86.75
68609;SHT31;55581;46.718;7.690;2023-04-03T06:29:55;6.81;84.23
68609;SHT31;55581;46.718;7.690;2023-04-03T06:32:21;6.81;83.76
68609;SHT31;55581;46.718;7.690;2023-04-03T06:34:48;6.87;83.21
68609;SHT31;55581;46.718;7.690;2023-04-03T06:37:19;6.77;83.51
68609;SHT31;55581;46.718;7.690;2023-04-03T06:39:45;6.71;84.62
68609;SHT31;55581;46.718;7.690;2023-04-03T06:42:11;6.70;84.92
68609;SHT31;55581;46.718;7.690;2023-04-03T06:44:37;6.73;84.76
68609;SHT31;55581;46.718;7.690;2023-04-03T06:47:02;6.74;83.64
68609;SHT31;55581;46.718;7.690;2023-04-03T06:49:28;6.74;83.45
68609;SHT31;55581;46.718;7.690;2023-04-03T06:51:54;6.75;83.79
68609;SHT31;55581;46.718;7.690;2023-04-03T06:54:19;6.84;82.47
68609;SHT31;55581;46.718;7.690;2023-04-03T06:56:45;6.71;83.15
68609;SHT31;55581;46.718;7.690;2023-04-03T06:59:12;6.71;82.88
68609;SHT31;55581;46.718;7.690;2023-04-03T07:01:41;6.68;83.65
68609;SHT31;55581;46.718;7.690;2023-04-03T07:04:07;6.64;83.18
68609;SHT31;55581;46.718;7.690;2023-04-03T07:06:33;6.71;82.61
68609;SHT31;55581;46.718;7.690;2023-04-03T07:08:59;6.83;82.07
68609;SHT31;55581;46.718;7.690;2023-04-03T07:11:24;6.83;82.01
68609;SHT31;55581;46.718;7.690;2023-04-03T07:13:51;6.68;82.75
68609;SHT31;55581;46.718;7.690;2023-04-03T07:16:17;6.64;82.83
68609;SHT31;55581;46.718;7.690;2023-04-03T07:18:43;6.53;84.52
68609;SHT31;55581;46.718;7.690;2023-04-03T07:21:08;6.51;85.28
68609;SHT31;55581;46.718;7.690;2023-04-03T07:23:36;6.51;84.79
68609;SHT31;55581;46.718;7.690;2023-04-03T07:26:02;6.58;85.51
68609;SHT31;55581;46.718;7.690;2023-04-03T07:28:27;6.51;83.95
68609;SHT31;55581;46.718;7.690;2023-04-03T07:31:02;6.64;83.38
68609;SHT31;55581;46.718;7.690;2023-04-03T07:33:28;6.61;82.36
68609;SHT31;55581;46.718;7.690;2023-04-03T07:35:54;6.74;83.40
68609;SHT31;55581;46.718;7.690;2023-04-03T07:38:21;6.83;83.15
68609;SHT31;55581;46.718;7.690;2023-04-03T07:40:48;6.75;82.35
68609;SHT31;55581;46.718;7.690;2023-04-03T07:43:14;6.85;82.35
68609;SHT31;55581;46.718;7.690;2023-04-03T07:45:40;6.81;82.41
68609;SHT31;55581;46.718;7.690;2023-04-03T07:48:06;6.91;82.97
68609;SHT31;55581;46.718;7.690;2023-04-03T07:50:34;6.78;82.20
68609;SHT31;55581;46.718;7.690;2023-04-03T07:53:01;6.77;82.49
68609;SHT31;55581;46.718;7.690;2023-04-03T07:55:27;6.81;83.94
68609;SHT31;55581;46.718;7.690;2023-04-03T07:57:52;6.96;84.79
68609;SHT31;55581;46.718;7.690;2023-04-03T08:00:18;7.01;83.38
68609;SHT31;55581;46.718;7.690;2023-04-03T08:02:44;7.08;83.08
68609;SHT31;55581;46.718;7.690;2023-04-03T08:05:16;7.11;81.78
68609;SHT31;55581;46.718;7.690;2023-04-03T08:07:41;7.06;80.31
68609;SHT31;55581;46.718;7.690;2023-04-03T08:10:08;7.09;80.23
68609;SHT31;55581;46.718;7.690;2023-04-03T08:12:34;7.19;79.82
68609;SHT31;55581;46.718;7.690;2023-04-03T08:15:00;7.15;80.04
68609;SHT31;55581;46.718;7.690;2023-04-03T08:17:27;7.16;80.49
68609;SHT31;55581;46.718;7.690;2023-04-03T08:19:53;7.11;79.75
68609;SHT31;55581;46.718;7.690;2023-04-03T08:22:18;7.05;81.76
68609;SHT31;55581;46.718;7.690;2023-04-03T08:24:49;6.99;80.93
68609;SHT31;55581;46.718;7.690;2023-04-03T08:27:14;7.09;80.01
68609;SHT31;55581;46.718;7.690;2023-04-03T08:29:40;7.16;79.99
68609;SHT31;55581;46.718;7.690;2023-04-03T08:32:07;7.26;79.05
68609;SHT31;55581;46.718;7.690;2023-04-03T08:34:33;7.29;78.60
68609;SHT31;55581;46.718;7.690;2023-04-03T08:37:01;7.27;78.90
68609;SHT31;55581;46.718;7.690;2023-04-03T08:39:28;7.47;78.01
68609;SHT31;55581;46.718;7.690;2023-04-03T08:41:57;7.54;79.18
68609;SHT31;55581;46.718;7.690;2023-04-03T08:49:52;7.15;79.53
68609;SHT31;55581;46.718;7.690;2023-04-03T08:52:25;6.94;81.26
68609;SHT31;55581;46.718;7.690;2023-04-03T08:54:56;6.83;81.79
68609;SHT31;55581;46.718;7.690;2023-04-03T08:57:34;6.68;81.12
68609;SHT31;55581;46.718;7.690;2023-04-03T09:00:05;6.63;81.44
68609;SHT31;55581;46.718;7.690;2023-04-03T09:02:55;6.58;82.00
68609;SHT31;55581;46.718;7.690;2023-04-03T09:05:32;6.53;81.40
68609;SHT31;55581;46.718;7.690;2023-04-03T09:08:48;6.57;82.10
68609;SHT31;55581;46.718;7.690;2023-04-03T09:11:25;6.73;79.72
68609;SHT31;55581;46.718;7.690;2023-04-03T09:14:01;6.81;81.66
68609;SHT31;55581;46.718;7.690;2023-04-03T09:16:44;6.71;80.14
68609;SHT31;55581;46.718;7.690;2023-04-03T09:21:58;7.04;77.27
68609;SHT31;55581;46.718;7.690;2023-04-03T09:24:25;7.19;77.17
68609;SHT31;55581;46.718;7.690;2023-04-03T09:26:58;7.13;75.15
68609;SHT31;55581;46.718;7.690;2023-04-03T09:29:26;7.20;74.14
68609;SHT31;55581;46.718;7.690;2023-04-03T09:32:02;7.32;75.43
68609;SHT31;55581;46.718;7.690;2023-04-03T09:34:43;7.37;75.14
68609;SHT31;55581;46.718;7.690;2023-04-03T09:37:44;7.22;73.95
68609;SHT31;55581;46.718;7.690;2023-04-03T09:40:33;7.32;73.15
68609;SHT31;55581;46.718;7.690;2023-04-03T09:45:41;7.27;73.04
68609;SHT31;55581;46.718;7.690;2023-04-03T09:48:08;7.40;72.83
68609;SHT31;55581;46.718;7.690;2023-04-03T09:50:35;7.46;73.30
68609;SHT31;55581;46.718;7.690;2023-04-03T09:55:53;7.37;72.42
68609;SHT31;55581;46.718;7.690;2023-04-03T09:58:38;7.43;72.61
68609;SHT31;55581;46.718;7.690;2023-04-03T10:06:34;7.20;74.24
68609;SHT31;55581;46.718;7.690;2023-04-03T10:14:40;7.08;73.54
68609;SHT31;55581;46.718;7.690;2023-04-03T10:20:27;7.08;75.10
68609;SHT31;55581;46.718;7.690;2023-04-03T10:28:05;6.98;73.48
68609;SHT31;55581;46.718;7.690;2023-04-03T10:31:17;7.04;73.05
68609;SHT31;55581;46.718;7.690;2023-04-03T10:41:39;7.05;73.56
68609;SHT31;55581;46.718;7.690;2023-04-03T10:46:50;7.20;72.35
68609;SHT31;55581;46.718;7.690;2023-04-03T10:49:45;7.23;72.65
68609;SHT31;55581;46.718;7.690;2023-04-03T10:52:22;7.12;73.47
68609;SHT31;55581;46.718;7.690;2023-04-03T10:55:51;6.88;72.20
68609;SHT31;55581;46.718;7.690;2023-04-03T10:57:53;6.88;74.09
68609;SHT31;55581;46.718;7.690;2023-04-03T11:00:30;7.01;73.78
68609;SHT31;55581;46.718;7.690;2023-04-03T11:02:57;7.11;73.62
68609;SHT31;55581;46.718;7.690;2023-04-03T11:08:03;6.81;74.36
68609;SHT31;55581;46.718;7.690;2023-04-03T11:10:41;7.11;74.44
68609;SHT31;55581;46.718;7.690;2023-04-03T11:13:30;7.06;74.69
68609;SHT31;55581;46.718;7.690;2023-04-03T11:15:58;7.15;74.44
68609;SHT31;55581;46.718;7.690;2023-04-03T11:18:35;7.01;74.40
68609;SHT31;55581;46.718;7.690;2023-04-03T11:21:17;6.89;74.89
68609;SHT31;55581;46.718;7.690;2023-04-03T11:23:46;6.85;75.22
68609;SHT31;55581;46.718;7.690;2023-04-03T11:26:14;6.81;75.35
68609;SHT31;55581;46.718;7.690;2023-04-03T11:28:40;6.75;76.30
68609;SHT31;55581;46.718;7.690;2023-04-03T11:34:19;6.66;75.91
68609;SHT31;55581;46.718;7.690;2023-04-03T11:36:50;6.67;75.35
68609;SHT31;55581;46.718;7.690;2023-04-03T11:39:28;6.61;75.96
68609;SHT31;55581;46.718;7.690;2023-04-03T11:41:54;6.60;76.40
68609;SHT31;55581;46.718;7.690;2023-04-03T11:44:37;6.57;75.43
68609;SHT31;55581;46.718;7.690;2023-04-03T11:47:06;6.51;75.90
68609;SHT31;55581;46.718;7.690;2023-04-03T11:50:02;6.63;75.41
68609;SHT31;55581;46.718;7.690;2023-04-03T12:26:46;6.40;74.14
68609;SHT31;55581;46.718;7.690;2023-04-03T12:35:26;6.32;75.74
68609;SHT31;55581;46.718;7.690;2023-04-03T12:44:15;6.73;72.23
68609;SHT31;55581;46.718;7.690;2023-04-03T12:51:16;6.94;72.13
68609;SHT31;55581;46.718;7.690;2023-04-03T12:53:46;6.89;70.90
68609;SHT31;55581;46.718;7.690;2023-04-03T12:58:46;6.74;70.80
68609;SHT31;55581;46.718;7.690;2023-04-03T13:01:15;6.77;70.36
68609;SHT31;55581;46.718;7.690;2023-04-03T13:03:52;6.87;69.97
68609;SHT31;55581;46.718;7.690;2023-04-03T13:06:32;6.91;72.97
68609;SHT31;55581;46.718;7.690;2023-04-03T13:09:00;6.77;73.41
68609;SHT31;55581;46.718;7.690;2023-04-03T13:11:30;6.96;71.77
68609;SHT31;55581;46.718;7.690;2023-04-03T13:13:59;7.06;72.38
68609;SHT31;55581;46.718;7.690;2023-04-03T13:16:26;7.20;70.32
68609;SHT31;55581;46.718;7.690;2023-04-03T13:18:53;7.29;69.81
68609;SHT31;55581;46.718;7.690;2023-04-03T13:21:30;7.16;71.09
68609;SHT31;55581;46.718;7.690;2023-04-03T13:24:00;7.09;71.00
68609;SHT31;55581;46.718;7.690;2023-04-03T13:26:30;7.06;70.71
68609;SHT31;55581;46.718;7.690;2023-04-03T13:29:07;7.08;70.44
68609;SHT31;55581;46.718;7.690;2023-04-03T13:31:40;7.06;71.37
68609;SHT31;55581;46.718;7.690;2023-04-03T13:36:54;7.26;69.44
68609;SHT31;55581;46.718;7.690;2023-04-03T13:39:29;7.33;69.19
68609;SHT31;55581;46.718;7.690;2023-04-03T13:42:13;7.32;69.81
68609;SHT31;55581;46.718;7.690;2023-04-03T13:44:39;7.30;69.34
68609;SHT31;55581;46.718;7.690;2023-04-03T13:47:19;7.24;69.99
68609;SHT31;55581;46.718;7.690;2023-04-03T13:50:12;7.20;70.40
68609;SHT31;55581;46.718;7.690;2023-04-03T13:55:29;7.26;70.40
68609;SHT31;55581;46.718;7.690;2023-04-03T14:02:59;7.09;70.95
68609;SHT31;55581;46.718;7.690;2023-04-03T14:05:25;7.19;70.65
68609;SHT31;55581;46.718;7.690;2023-04-03T14:07:53;7.29;70.10
68609;SHT31;55581;46.718;7.690;2023-04-03T14:10:19;7.29;71.01
68609;SHT31;55581;46.718;7.690;2023-04-03T14:12:44;7.37;71.72
68609;SHT31;55581;46.718;7.690;2023-04-03T14:15:20;7.44;70.15
68609;SHT31;55581;46.718;7.690;2023-04-03T14:17:49;7.42;69.23
68609;SHT31;55581;46.718;7.690;2023-04-03T14:20:17;7.51;70.26
68609;SHT31;55581;46.718;7.690;2023-04-03T14:22:43;7.59;68.09
68609;SHT31;55581;46.718;7.690;2023-04-03T14:25:09;7.54;68.10
68609;SHT31;55581;46.718;7.690;2023-04-03T14:27:40;7.42;70.08
68609;SHT31;55581;46.718;7.690;2023-04-03T14:30:12;7.27;69.92
68609;SHT31;55581;46.718;7.690;2023-04-03T14:32:38;7.16;69.41
68609;SHT31;55581;46.718;7.690;2023-04-03T14:35:04;7.16;69.52
68609;SHT31;55581;46.718;7.690;2023-04-03T14:37:32;7.24;70.50
68609;SHT31;55581;46.718;7.690;2023-04-03T14:39:59;7.33;68.97
68609;SHT31;55581;46.718;7.690;2023-04-03T14:42:32;7.39;67.71
68609;SHT31;55581;46.718;7.690;2023-04-03T14:45:00;7.23;70.17
68609;SHT31;55581;46.718;7.690;2023-04-03T14:47:28;7.30;69.67
68609;SHT31;55581;46.718;7.690;2023-04-03T14:49:54;7.20;69.59
68609;SHT31;55581;46.718;7.690;2023-04-03T14:52:32;7.19;69.39
68609;SHT31;55581;46.718;7.690;2023-04-03T14:54:58;7.24;70.27
68609;SHT31;55581;46.718;7.690;2023-04-03T14:57:25;7.26;69.59
68609;SHT31;55581;46.718;7.690;2023-04-03T14:59:53;7.11;70.61
68609;SHT31;55581;46.718;7.690;2023-04-03T15:02:34;7.13;70.43
68609;SHT31;55581;46.718;7.690;2023-04-03T15:05:01;6.96;69.14
68609;SHT31;55581;46.718;7.690;2023-04-03T15:07:32;7.01;69.43
68609;SHT31;55581;46.718;7.690;2023-04-03T15:10:09;7.06;69.81
68609;SHT31;55581;46.718;7.690;2023-04-03T15:12:38;7.04;70.79
68609;SHT31;55581;46.718;7.690;2023-04-03T15:15:04;7.04;70.05
68609;SHT31;55581;46.718;7.690;2023-04-03T15:17:30;7.04;70.04
68609;SHT31;55581;46.718;7.690;2023-04-03T15:20:00;7.05;71.92
68609;SHT31;55581;46.718;7.690;2023-04-03T15:22:26;7.11;70.04
68609;SHT31;55581;46.718;7.690;2023-04-03T15:24:51;7.01;70.14
68609;SHT31;55581;46.718;7.690;2023-04-03T15:27:17;6.96;70.44
68609;SHT31;55581;46.718;7.690;2023-04-03T15:29:45;6.88;70.98
68609;SHT31;55581;46.718;7.690;2023-04-03T15:32:11;6.89;70.95
68609;SHT31;55581;46.718;7.690;2023-04-03T15:34:41;6.92;71.47
68609;SHT31;55581;46.718;7.690;2023-04-03T15:37:07;6.95;71.13
68609;SHT31;55581;46.718;7.690;2023-04-03T15:39:32;6.89;71.12
68609;SHT31;55581;46.718;7.690;2023-04-03T15:41:58;6.87;70.93
68609;SHT31;55581;46.718;7.690;2023-04-03T15:44:32;6.85;71.30
68609;SHT31;55581;46.718;7.690;2023-04-03T15:46:58;6.87;72.17
68609;SHT31;55581;46.718;7.690;2023-04-03T15:49:25;6.85;71.11
68609;SHT31;55581;46.718;7.690;2023-04-03T15:51:51;6.92;71.20
68609;SHT31;55581;46.718;7.690;2023-04-03T15:54:16;6.96;71.35
68609;SHT31;55581;46.718;7.690;2023-04-03T15:56:42;6.92;71.30
68609;SHT31;55581;46.718;7.690;2023-04-03T15:59:07;6.95;71.35
68609;SHT31;55581;46.718;7.690;2023-04-03T16:01:33;6.98;70.73
68609;SHT31;55581;46.718;7.690;2023-04-03T16:03:58;7.05;69.99
68609;SHT31;55581;46.718;7.690;2023-04-03T16:06:27;7.01;70.83
68609;SHT31;55581;46.718;7.690;2023-04-03T16:08:54;6.98;70.88
68609;SHT31;55581;46.718;7.690;2023-04-03T16:11:26;7.08;71.68
68609;SHT31;55581;46.718;7.690;2023-04-03T16:13:52;7.06;70.51
68609;SHT31;55581;46.718;7.690;2023-04-03T16:16:17;7.02;70.92
68609;SHT31;55581;46.718;7.690;2023-04-03T16:18:43;7.01;70.82
68609;SHT31;55581;46.718;7.690;2023-04-03T16:21:09;6.98;68.34
68609;SHT31;55581;46.718;7.690;2023-04-03T16:23:34;7.04;69.69
68609;SHT31;55581;46.718;7.690;2023-04-03T16:26:00;7.15;69.02
68609;SHT31;55581;46.718;7.690;2023-04-03T16:28:25;7.19;69.76
68609;SHT31;55581;46.718;7.690;2023-04-03T16:30:51;7.19;69.97
68609;SHT31;55581;46.718;7.690;2023-04-03T16:33:19;7.24;70.33
68609;SHT31;55581;46.718;7.690;2023-04-03T16:35:47;7.26;69.46
68609;SHT31;55581;46.718;7.690;2023-04-03T16:38:13;7.15;68.27
68609;SHT31;55581;46.718;7.690;2023-04-03T16:40:39;7.02;70.28
68609;SHT31;55581;46.718;7.690;2023-04-03T16:43:07;7.01;69.63
68609;SHT31;55581;46.718;7.690;2023-04-03T16:45:33;7.02;69.89
68609;SHT31;55581;46.718;7.690;2023-04-03T16:47:58;7.09;69.19
68609;SHT31;55581;46.718;7.690;2023-04-03T16:50:24;7.09;69.75
68609;SHT31;55581;46.718;7.690;2023-04-03T16:52:49;7.05;68.64
68609;SHT31;55581;46.718;7.690;2023-04-03T16:55:15;6.94;68.61
68609;SHT31;55581;46.718;7.690;2023-04-03T16:57:40;6.74;71.51
68609;SHT31;55581;46.718;7.690;2023-04-03T17:00:11;6.60;69.76
68609;SHT31;55581;46.718;7.690;2023-04-03T17:02:36;6.43;68.66
68609;SHT31;55581;46.718;7.690;2023-04-03T17:05:02;6.41;67.96
68609;SHT31;55581;46.718;7.690;2023-04-03T17:07:30;6.47;68.05
68609;SHT31;55581;46.718;7.690;2023-04-03T17:09:55;6.49;69.01
68609;SHT31;55581;46.718;7.690;2023-04-03T17:12:21;6.41;67.81
68609;SHT31;55581;46.718;7.690;2023-04-03T17:14:49;6.43;67.97
68609;SHT31;55581;46.718;7.690;2023-04-03T17:17:17;6.44;67.05
68609;SHT31;55581;46.718;7.690;2023-04-03T17:19:43;6.36;68.10
68609;SHT31;55581;46.718;7.690;2023-04-03T17:22:12;6.37;68.41
68609;SHT31;55581;46.718;7.690;2023-04-03T17:24:37;6.36;68.23
68609;SHT31;55581;46.718;7.690;2023-04-03T17:27:03;6.34;68.09
68609;SHT31;55581;46.718;7.690;2023-04-03T17:29:28;6.20;69.98
68609;SHT31;55581;46.718;7.690;2023-04-03T17:31:54;6.29;68.98
68609;SHT31;55581;46.718;7.690;2023-04-03T17:34:20;6.30;69.78
68609;SHT31;55581;46.718;7.690;2023-04-03T17:36:46;6.33;69.03
68609;SHT31;55581;46.718;7.690;2023-04-03T17:39:13;6.28;69.83
68609;SHT31;55581;46.718;7.690;2023-04-03T17:41:41;6.18;70.80
68609;SHT31;55581;46.718;7.690;2023-04-03T17:44:06;6.13;70.51
68609;SHT31;55581;46.718;7.690;2023-04-03T17:46:32;6.18;67.61
68609;SHT31;55581;46.718;7.690;2023-04-03T17:48:58;6.20;67.51
68609;SHT31;55581;46.718;7.690;2023-04-03T17:51:27;6.20;66.85
68609;SHT31;55581;46.718;7.690;2023-04-03T17:53:53;6.16;65.66
68609;SHT31;55581;46.718;7.690;2023-04-03T17:56:23;6.16;67.39